createdAt,value
2022-10-31T00:09:37.672Z,101434.97
2022-10-31T00:19:59.090Z,101438.38
2022-10-31T00:30:20.719Z,101456.41
2022-10-31T00:40:42.054Z,101469.78
2022-10-31T00:51:03.498Z,101486.41
2022-10-31T01:01:25.045Z,101485.81
2022-10-31T01:11:46.495Z,101497.84
2022-10-31T01:22:07.953Z,101498.72
2022-10-31T01:32:32.442Z,101492.38
2022-10-31T01:42:53.775Z,101494.31
2022-10-31T01:53:16.405Z,101511.91
2022-10-31T02:03:37.731Z,101502.59
2022-10-31T02:14:01.264Z,101501.03
2022-10-31T02:24:41.377Z,101508.38
2022-10-31T02:35:13.098Z,101514.09
2022-10-31T02:45:45.739Z,101521.41
2022-10-31T02:56:13.433Z,101520.47
2022-10-31T03:06:54.992Z,101513.38
2022-10-31T03:17:37.862Z,101527.59
2022-10-31T03:28:00.843Z,101536.88
2022-10-31T03:38:23.356Z,101546.75
2022-10-31T03:48:44.702Z,101544.06
2022-10-31T03:59:14.799Z,101555.84
2022-10-31T04:09:37.717Z,101546.88
2022-10-31T04:20:02.459Z,101540.31
2022-10-31T04:30:23.896Z,101562.00
2022-10-31T04:40:45.740Z,101564.13
2022-10-31T04:51:07.166Z,101559.56
2022-10-31T05:01:29.074Z,101566.44
2022-10-31T05:11:50.553Z,101551.75
2022-10-31T05:22:11.899Z,101560.16
2022-10-31T05:32:43.917Z,101553.00
2022-10-31T05:43:05.314Z,101560.16
2022-10-31T05:53:26.630Z,101558.47
2022-10-31T06:03:47.969Z,101581.22
2022-10-31T06:14:09.343Z,101587.69
2022-10-31T06:24:30.692Z,101600.31
2022-10-31T06:34:52.041Z,101595.81
2022-10-31T06:45:13.800Z,101597.63
2022-10-31T06:55:35.117Z,101591.94
2022-10-31T07:05:57.635Z,101609.22
2022-10-31T07:16:18.963Z,101622.25
2022-10-31T07:26:40.348Z,101617.56
2022-10-31T07:37:01.680Z,101620.47
2022-10-31T07:47:23.003Z,101613.31
2022-10-31T07:57:44.380Z,101605.69
2022-10-31T08:08:06.324Z,101617.09
2022-10-31T08:18:27.651Z,101627.09
2022-10-31T08:28:50.776Z,101616.09
2022-10-31T08:39:12.192Z,101625.72
2022-10-31T08:49:33.623Z,101626.63
2022-10-31T08:59:54.950Z,101617.16
2022-10-31T09:10:16.362Z,101614.22
2022-10-31T09:20:38.354Z,101607.94
2022-10-31T09:30:59.774Z,101599.25
2022-10-31T09:41:41.258Z,101593.88
2022-10-31T09:52:06.016Z,101575.50
2022-10-31T10:02:40.316Z,101581.81
2022-10-31T10:13:19.522Z,101594.47
2022-10-31T10:23:56.311Z,101597.91
2022-10-31T10:34:17.630Z,101585.56
2022-10-31T10:44:59.731Z,101587.38
2022-10-31T10:55:25.829Z,101582.38
2022-10-31T11:05:54.539Z,101563.53
2022-10-31T11:16:30.555Z,101570.44
2022-10-31T11:26:52.515Z,101547.84
2022-10-31T11:37:15.886Z,101549.72
2022-10-31T11:47:37.825Z,101540.91
2022-10-31T11:57:59.566Z,101526.38
2022-10-31T12:08:21.220Z,101510.94
2022-10-31T12:18:51.659Z,101499.16
2022-10-31T12:29:33.189Z,101485.31
2022-10-31T12:40:00.917Z,101448.38
2022-10-31T12:50:28.438Z,101445.94
2022-10-31T13:00:52.747Z,101414.00
2022-10-31T13:11:26.227Z,101396.16
2022-10-31T13:21:53.673Z,101393.53
2022-10-31T13:32:15.113Z,101378.81
2022-10-31T13:42:50.711Z,101351.44
2022-10-31T13:53:12.329Z,101305.41
2022-10-31T14:04:03.305Z,101275.81
2022-10-31T14:14:18.585Z,101290.69
2022-10-31T14:24:39.975Z,101281.63
2022-10-31T14:35:02.244Z,101254.44
2022-10-31T14:45:26.690Z,101242.00
2022-10-31T14:55:49.518Z,101230.28
2022-10-31T15:06:12.535Z,101245.03
2022-10-31T15:16:36.091Z,101230.44
2022-10-31T15:27:02.404Z,101232.16
2022-10-31T15:37:26.945Z,101226.84
2022-10-31T15:47:54.330Z,101216.63
2022-10-31T15:58:17.152Z,101201.06
2022-10-31T16:08:45.796Z,101204.53
2022-10-31T16:19:15.543Z,101195.16
2022-10-31T16:29:40.829Z,101179.22
2022-10-31T16:40:02.334Z,101164.59
2022-10-31T16:50:28.021Z,101170.25
2022-10-31T17:00:49.949Z,101161.97
2022-10-31T17:11:22.180Z,101169.94
2022-10-31T17:21:43.552Z,101134.25
2022-10-31T17:32:05.006Z,101131.84
2022-10-31T17:42:26.407Z,101129.63
2022-10-31T17:52:47.925Z,101079.91
2022-10-31T18:03:09.275Z,101081.91
2022-10-31T18:13:30.617Z,101059.44
2022-10-31T18:23:55.910Z,101042.78
2022-10-31T18:34:17.653Z,101042.06
2022-10-31T18:44:39.151Z,101030.41
2022-10-31T18:55:00.540Z,101035.63
2022-10-31T19:05:21.991Z,100988.44
2022-10-31T19:15:43.690Z,100962.88
2022-10-31T19:26:05.173Z,100943.09
2022-10-31T19:36:26.852Z,100924.56
2022-10-31T19:46:52.833Z,100889.38
2022-10-31T19:57:14.991Z,100890.19
2022-10-31T20:07:36.409Z,100875.81
2022-10-31T20:17:57.791Z,100888.91
2022-10-31T20:28:19.270Z,100854.88
2022-10-31T20:38:41.657Z,100847.16
2022-10-31T20:49:03.669Z,100849.19
2022-10-31T20:59:25.036Z,100827.75
2022-10-31T21:09:46.531Z,100826.28
2022-10-31T21:20:08.920Z,100826.75
2022-10-31T21:30:30.363Z,100807.69
2022-10-31T21:40:57.872Z,100801.00
2022-10-31T21:51:23.894Z,100802.59
2022-10-31T22:01:45.458Z,100786.97
2022-10-31T22:12:09.048Z,100771.97
2022-10-31T22:22:30.380Z,100754.47
2022-10-31T22:32:51.726Z,100752.53
2022-10-31T22:43:13.169Z,100734.44
2022-10-31T22:53:35.339Z,100721.25
2022-10-31T23:03:56.890Z,100703.06
2022-10-31T23:14:20.651Z,100695.56
2022-10-31T23:24:43.482Z,100673.00
2022-10-31T23:35:06.261Z,100653.97
2022-10-31T23:45:28.591Z,100664.44
2022-10-31T23:55:50.051Z,100630.78
